KAXS/AXS METAR and TAF weather

Enter ICAO airport designator
Station Type Date Time Source
KAXS METAR 2021/09/16 10:15 UTC NOAA

KAXS 161015Z AUTO 11005KT 10SM CLR 20/17 A2995 RMK AO2 T01980168


Station Type Date Time Source
KAXS Decoded METAR 2021/09/16 10:15 UTC NOAA

Altus, Altus/Quartz Mountain Regional Airport, OK, United States (KAXS) 34-41-55N 099-20-17W
Sep 16, 2021 - 06:15 AM EDT / 2021.09.16 1015 UTC
Wind: from the ESE (110 degrees) at 6 MPH (5 KT):0
Visibility: 10 mile(s):0
Sky conditions: clear
Temperature: 67.6 F (19.8 C)
Dew Point: 62.2 F (16.8 C)
Relative Humidity: 82%
Pressure (altimeter): 29.95 in. Hg (1014 hPa)
ob: KAXS 161015Z AUTO 11005KT 10SM CLR 20/17 A2995 RMK AO2 T01980168
cycle: 10

Station Type Date Time Source
KAXS TAF UTC NOAA

Error!

Example: see airport list